sensor_id;sensor_type;location;lat;lon;timestamp;P1;durP1;ratioP1;P2;durP2;ratioP2
74483;SDS011;62942;52.462;10.846;2023-05-01T00:00:20;6.1;;;10.9;;
74483;SDS011;62942;52.462;10.846;2023-05-01T00:01:30;7;;;13.5;;
74483;SDS011;62942;52.462;10.846;2023-05-01T00:02:30;6.7;;;13.3;;
74483;SDS011;62942;52.462;10.846;2023-05-01T00:03:40;6.1;;;11.6;;
74483;SDS011;62942;52.462;10.846;2023-05-01T00:04:50;6.4;;;11.3;;
74483;SDS011;62942;52.462;10.846;2023-05-01T00:06:01;6.6;;;13;;
74483;SDS011;62942;52.462;10.846;2023-05-01T00:07:10;6.6;;;11.5;;
74483;SDS011;62942;52.462;10.846;2023-05-01T00:08:10;6.7;;;13.4;;
74483;SDS011;62942;52.462;10.846;2023-05-01T00:09:12;6.9;;;13.3;;
74483;SDS011;62942;52.462;10.846;2023-05-01T00:10:20;6.6;;;12.1;;
74483;SDS011;62942;52.462;10.846;2023-05-01T00:11:30;6.7;;;12.7;;
74483;SDS011;62942;52.462;10.846;2023-05-01T00:12:30;6.5;;;11.9;;
74483;SDS011;62942;52.462;10.846;2023-05-01T00:13:40;6.9;;;11.3;;
74483;SDS011;62942;52.462;10.846;2023-05-01T00:14:40;7.2;;;12.5;;
74483;SDS011;62942;52.462;10.846;2023-05-01T00:15:50;7.1;;;12.3;;
74483;SDS011;62942;52.462;10.846;2023-05-01T00:16:50;7;;;11.9;;
74483;SDS011;62942;52.462;10.846;2023-05-01T00:18:00;7;;;12.1;;
74483;SDS011;62942;52.462;10.846;2023-05-01T00:19:00;7.3;;;12.3;;
74483;SDS011;62942;52.462;10.846;2023-05-01T00:20:10;7;;;12.9;;
74483;SDS011;62942;52.462;10.846;2023-05-01T00:21:10;6.9;;;11.2;;
74483;SDS011;62942;52.462;10.846;2023-05-01T00:22:10;6.9;;;13;;
74483;SDS011;62942;52.462;10.846;2023-05-01T00:23:20;6.9;;;11.7;;
74483;SDS011;62942;52.462;10.846;2023-05-01T00:24:30;6.8;;;12.6;;
74483;SDS011;62942;52.462;10.846;2023-05-01T00:25:40;7.1;;;12.1;;
74483;SDS011;62942;52.462;10.846;2023-05-01T00:26:40;6.5;;;11.5;;
74483;SDS011;62942;52.462;10.846;2023-05-01T00:27:50;6.9;;;14;;
74483;SDS011;62942;52.462;10.846;2023-05-01T00:28:50;6.8;;;11.1;;
74483;SDS011;62942;52.462;10.846;2023-05-01T00:29:50;7.2;;;13.1;;
74483;SDS011;62942;52.462;10.846;2023-05-01T00:31:00;7.1;;;12.4;;
74483;SDS011;62942;52.462;10.846;2023-05-01T00:32:00;7.2;;;11.9;;
74483;SDS011;62942;52.462;10.846;2023-05-01T00:33:10;7.4;;;14.1;;
74483;SDS011;62942;52.462;10.846;2023-05-01T00:34:10;7.3;;;12.2;;
74483;SDS011;62942;52.462;10.846;2023-05-01T00:35:20;7.2;;;13.9;;
74483;SDS011;62942;52.462;10.846;2023-05-01T00:36:20;7.6;;;13.2;;
74483;SDS011;62942;52.462;10.846;2023-05-01T00:37:20;7.1;;;11.4;;
74483;SDS011;62942;52.462;10.846;2023-05-01T00:38:20;7.5;;;14.9;;
74483;SDS011;62942;52.462;10.846;2023-05-01T00:39:20;7.1;;;12.4;;
74483;SDS011;62942;52.462;10.846;2023-05-01T00:40:30;7.7;;;13.5;;
74483;SDS011;62942;52.462;10.846;2023-05-01T00:41:40;7.2;;;13.8;;
74483;SDS011;62942;52.462;10.846;2023-05-01T00:42:40;7.5;;;14.1;;
74483;SDS011;62942;52.462;10.846;2023-05-01T00:43:40;7.5;;;15;;
74483;SDS011;62942;52.462;10.846;2023-05-01T00:44:40;7.4;;;12.6;;
74483;SDS011;62942;52.462;10.846;2023-05-01T00:45:50;7;;;14.6;;
74483;SDS011;62942;52.462;10.846;2023-05-01T00:46:50;7.7;;;15;;
74483;SDS011;62942;52.462;10.846;2023-05-01T00:47:50;7.3;;;13.4;;
74483;SDS011;62942;52.462;10.846;2023-05-01T00:49:00;7.5;;;13.2;;
74483;SDS011;62942;52.462;10.846;2023-05-01T00:50:10;7.7;;;13.6;;
74483;SDS011;62942;52.462;10.846;2023-05-01T00:51:10;7.8;;;14.1;;
74483;SDS011;62942;52.462;10.846;2023-05-01T00:52:10;7.4;;;14.1;;
74483;SDS011;62942;52.462;10.846;2023-05-01T00:53:12;7.7;;;14.3;;
74483;SDS011;62942;52.462;10.846;2023-05-01T00:54:20;7.4;;;13.1;;
74483;SDS011;62942;52.462;10.846;2023-05-01T00:55:20;7.4;;;13.4;;
74483;SDS011;62942;52.462;10.846;2023-05-01T00:56:30;7.3;;;12;;
74483;SDS011;62942;52.462;10.846;2023-05-01T00:57:30;7.7;;;13.8;;
74483;SDS011;62942;52.462;10.846;2023-05-01T00:58:30;7.3;;;13.6;;
74483;SDS011;62942;52.462;10.846;2023-05-01T00:59:40;7.5;;;13.5;;
74483;SDS011;62942;52.462;10.846;2023-05-01T01:00:40;7.6;;;14.6;;
74483;SDS011;62942;52.462;10.846;2023-05-01T01:01:41;7;;;12.5;;
74483;SDS011;62942;52.462;10.846;2023-05-01T01:02:50;7.4;;;14.1;;
74483;SDS011;62942;52.462;10.846;2023-05-01T01:03:50;7.4;;;13.2;;
74483;SDS011;62942;52.462;10.846;2023-05-01T01:04:50;7.5;;;12.9;;
74483;SDS011;62942;52.462;10.846;2023-05-01T01:06:03;7.7;;;14.2;;
74483;SDS011;62942;52.462;10.846;2023-05-01T01:07:02;7.8;;;16.5;;
74483;SDS011;62942;52.462;10.846;2023-05-01T01:08:14;7.5;;;14;;
74483;SDS011;62942;52.462;10.846;2023-05-01T01:09:12;7.4;;;12.5;;
74483;SDS011;62942;52.462;10.846;2023-05-01T01:10:13;7.4;;;14;;
74483;SDS011;62942;52.462;10.846;2023-05-01T01:11:23;7.3;;;13.4;;
74483;SDS011;62942;52.462;10.846;2023-05-01T01:12:23;6.7;;;12.3;;
74483;SDS011;62942;52.462;10.846;2023-05-01T01:13:23;7.1;;;13.5;;
74483;SDS011;62942;52.462;10.846;2023-05-01T01:14:31;7.3;;;13.1;;
74483;SDS011;62942;52.462;10.846;2023-05-01T01:15:32;7.4;;;13;;
74483;SDS011;62942;52.462;10.846;2023-05-01T01:16:31;7.2;;;12;;
74483;SDS011;62942;52.462;10.846;2023-05-01T01:17:31;7;;;12.4;;
74483;SDS011;62942;52.462;10.846;2023-05-01T01:18:42;7.3;;;16.1;;
74483;SDS011;62942;52.462;10.846;2023-05-01T01:20:13;7.4;;;13;;
74483;SDS011;62942;52.462;10.846;2023-05-01T01:21:03;7.5;;;14.1;;
74483;SDS011;62942;52.462;10.846;2023-05-01T01:22:11;7.3;;;14.7;;
74483;SDS011;62942;52.462;10.846;2023-05-01T01:23:23;7.8;;;13.8;;
74483;SDS011;62942;52.462;10.846;2023-05-01T01:24:25;7.9;;;13.5;;
74483;SDS011;62942;52.462;10.846;2023-05-01T01:25:33;7;;;11.4;;
74483;SDS011;62942;52.462;10.846;2023-05-01T01:27:00;7.6;;;13.3;;
74483;SDS011;62942;52.462;10.846;2023-05-01T01:28:15;7.2;;;13;;
74483;SDS011;62942;52.462;10.846;2023-05-01T01:28:59;7.3;;;12.2;;
74483;SDS011;62942;52.462;10.846;2023-05-01T01:29:55;7;;;12.6;;
74483;SDS011;62942;52.462;10.846;2023-05-01T01:30:56;6.9;;;14.3;;
74483;SDS011;62942;52.462;10.846;2023-05-01T01:32:02;7.1;;;13.2;;
74483;SDS011;62942;52.462;10.846;2023-05-01T01:33:16;6.5;;;11.1;;
74483;SDS011;62942;52.462;10.846;2023-05-01T01:34:22;6.8;;;12.7;;
74483;SDS011;62942;52.462;10.846;2023-05-01T01:35:30;6.6;;;11.3;;
74483;SDS011;62942;52.462;10.846;2023-05-01T01:36:32;6.5;;;10.5;;
74483;SDS011;62942;52.462;10.846;2023-05-01T01:37:42;6.6;;;10.8;;
74483;SDS011;62942;52.462;10.846;2023-05-01T01:38:57;6.7;;;11;;
74483;SDS011;62942;52.462;10.846;2023-05-01T01:39:51;6.6;;;11;;
74483;SDS011;62942;52.462;10.846;2023-05-01T01:40:52;6.4;;;11.4;;
74483;SDS011;62942;52.462;10.846;2023-05-01T01:42:00;7;;;12.3;;
74483;SDS011;62942;52.462;10.846;2023-05-01T01:43:11;6.8;;;12.3;;
74483;SDS011;62942;52.462;10.846;2023-05-01T01:44:22;7;;;12.7;;
74483;SDS011;62942;52.462;10.846;2023-05-01T01:45:21;7.1;;;13.6;;
74483;SDS011;62942;52.462;10.846;2023-05-01T01:46:31;7.1;;;12.7;;
74483;SDS011;62942;52.462;10.846;2023-05-01T01:47:41;7.4;;;12.1;;
74483;SDS011;62942;52.462;10.846;2023-05-01T01:48:50;7.7;;;13.5;;
74483;SDS011;62942;52.462;10.846;2023-05-01T01:49:50;7.3;;;12.9;;
74483;SDS011;62942;52.462;10.846;2023-05-01T01:50:50;7.6;;;12.7;;
74483;SDS011;62942;52.462;10.846;2023-05-01T01:52:00;7.4;;;14.6;;
74483;SDS011;62942;52.462;10.846;2023-05-01T01:53:00;7.5;;;14.5;;
74483;SDS011;62942;52.462;10.846;2023-05-01T01:54:10;7;;;12.2;;
74483;SDS011;62942;52.462;10.846;2023-05-01T01:55:21;7.3;;;12.4;;
74483;SDS011;62942;52.462;10.846;2023-05-01T01:56:20;7.1;;;13.6;;
74483;SDS011;62942;52.462;10.846;2023-05-01T01:57:30;7.1;;;11.8;;
74483;SDS011;62942;52.462;10.846;2023-05-01T01:58:40;7.1;;;11.5;;
74483;SDS011;62942;52.462;10.846;2023-05-01T01:59:40;7.5;;;12.5;;
74483;SDS011;62942;52.462;10.846;2023-05-01T02:00:40;7;;;13.1;;
74483;SDS011;62942;52.462;10.846;2023-05-01T02:01:50;7.7;;;13.7;;
74483;SDS011;62942;52.462;10.846;2023-05-01T02:03:00;7.5;;;13.2;;
74483;SDS011;62942;52.462;10.846;2023-05-01T02:04:00;8;;;12.9;;
74483;SDS011;62942;52.462;10.846;2023-05-01T02:05:00;7.9;;;13.5;;
74483;SDS011;62942;52.462;10.846;2023-05-01T02:06:10;8.1;;;13.3;;
74483;SDS011;62942;52.462;10.846;2023-05-01T02:07:20;7.8;;;13.1;;
74483;SDS011;62942;52.462;10.846;2023-05-01T02:08:20;9.3;;;16.7;;
74483;SDS011;62942;52.462;10.846;2023-05-01T02:09:20;8.4;;;14.5;;
74483;SDS011;62942;52.462;10.846;2023-05-01T02:10:30;8.7;;;15.8;;
74483;SDS011;62942;52.462;10.846;2023-05-01T02:11:30;8.2;;;14.9;;
74483;SDS011;62942;52.462;10.846;2023-05-01T02:12:40;9.3;;;17.1;;
74483;SDS011;62942;52.462;10.846;2023-05-01T02:13:40;9;;;15.6;;
74483;SDS011;62942;52.462;10.846;2023-05-01T02:14:50;9;;;16.8;;
74483;SDS011;62942;52.462;10.846;2023-05-01T02:15:50;9.3;;;16.7;;
74483;SDS011;62942;52.462;10.846;2023-05-01T02:16:50;8.5;;;15.8;;
74483;SDS011;62942;52.462;10.846;2023-05-01T02:18:00;8.7;;;14.1;;
74483;SDS011;62942;52.462;10.846;2023-05-01T02:19:11;8.7;;;16.8;;
74483;SDS011;62942;52.462;10.846;2023-05-01T02:20:20;8.5;;;14.5;;
74483;SDS011;62942;52.462;10.846;2023-05-01T02:21:20;9.2;;;16.9;;
74483;SDS011;62942;52.462;10.846;2023-05-01T02:22:30;9.2;;;15.9;;
74483;SDS011;62942;52.462;10.846;2023-05-01T02:23:30;8.6;;;15.7;;
74483;SDS011;62942;52.462;10.846;2023-05-01T02:24:30;8.8;;;16.9;;
74483;SDS011;62942;52.462;10.846;2023-05-01T02:25:40;8.6;;;14.8;;
74483;SDS011;62942;52.462;10.846;2023-05-01T02:26:51;8.5;;;15.1;;
74483;SDS011;62942;52.462;10.846;2023-05-01T02:27:52;8.5;;;15.1;;
74483;SDS011;62942;52.462;10.846;2023-05-01T02:29:00;8.2;;;13.7;;
74483;SDS011;62942;52.462;10.846;2023-05-01T02:30:10;8.3;;;14.1;;
74483;SDS011;62942;52.462;10.846;2023-05-01T02:31:10;8.1;;;13.8;;
74483;SDS011;62942;52.462;10.846;2023-05-01T02:32:20;7.3;;;12.2;;
74483;SDS011;62942;52.462;10.846;2023-05-01T02:33:30;7.5;;;11.9;;
74483;SDS011;62942;52.462;10.846;2023-05-01T02:34:32;6.9;;;11.8;;
74483;SDS011;62942;52.462;10.846;2023-05-01T02:35:40;7.2;;;12.5;;
74483;SDS011;62942;52.462;10.846;2023-05-01T02:36:40;7.3;;;12.7;;
74483;SDS011;62942;52.462;10.846;2023-05-01T02:37:40;7.4;;;14;;
74483;SDS011;62942;52.462;10.846;2023-05-01T02:38:40;7.3;;;11.5;;
74483;SDS011;62942;52.462;10.846;2023-05-01T02:39:50;7.4;;;13.9;;
74483;SDS011;62942;52.462;10.846;2023-05-01T02:41:00;7.4;;;12.7;;
74483;SDS011;62942;52.462;10.846;2023-05-01T02:42:10;7.4;;;14.3;;
74483;SDS011;62942;52.462;10.846;2023-05-01T02:43:11;7.2;;;12.8;;
74483;SDS011;62942;52.462;10.846;2023-05-01T02:44:10;7.2;;;12.6;;
74483;SDS011;62942;52.462;10.846;2023-05-01T02:45:14;7.1;;;12.5;;
74483;SDS011;62942;52.462;10.846;2023-05-01T02:46:10;7.1;;;12.8;;
74483;SDS011;62942;52.462;10.846;2023-05-01T02:47:21;7.3;;;12.3;;
74483;SDS011;62942;52.462;10.846;2023-05-01T02:48:30;6.9;;;11.4;;
74483;SDS011;62942;52.462;10.846;2023-05-01T02:49:30;7.1;;;12.8;;
74483;SDS011;62942;52.462;10.846;2023-05-01T02:50:30;7;;;12;;
74483;SDS011;62942;52.462;10.846;2023-05-01T02:51:40;6.8;;;12.1;;
74483;SDS011;62942;52.462;10.846;2023-05-01T02:52:40;6.9;;;10.6;;
74483;SDS011;62942;52.462;10.846;2023-05-01T02:53:50;7.1;;;13.2;;
74483;SDS011;62942;52.462;10.846;2023-05-01T02:54:50;6.8;;;10.5;;
74483;SDS011;62942;52.462;10.846;2023-05-01T02:56:01;6.6;;;12.7;;
74483;SDS011;62942;52.462;10.846;2023-05-01T02:57:10;6.9;;;13.7;;
74483;SDS011;62942;52.462;10.846;2023-05-01T02:58:13;6.6;;;12.1;;
74483;SDS011;62942;52.462;10.846;2023-05-01T02:59:20;7;;;11.8;;
74483;SDS011;62942;52.462;10.846;2023-05-01T03:00:30;6.6;;;12.4;;
74483;SDS011;62942;52.462;10.846;2023-05-01T03:01:30;7;;;11.8;;
74483;SDS011;62942;52.462;10.846;2023-05-01T03:02:40;7;;;13.2;;
74483;SDS011;62942;52.462;10.846;2023-05-01T03:03:50;6.6;;;11.9;;
74483;SDS011;62942;52.462;10.846;2023-05-01T03:05:00;6.4;;;10.7;;
74483;SDS011;62942;52.462;10.846;2023-05-01T03:06:10;6.8;;;13.2;;
74483;SDS011;62942;52.462;10.846;2023-05-01T03:07:10;6.4;;;11.6;;
74483;SDS011;62942;52.462;10.846;2023-05-01T03:08:20;6.4;;;12.1;;
74483;SDS011;62942;52.462;10.846;2023-05-01T03:09:20;6.6;;;10.9;;
74483;SDS011;62942;52.462;10.846;2023-05-01T03:10:30;6.7;;;13.7;;
74483;SDS011;62942;52.462;10.846;2023-05-01T03:11:30;6.4;;;10.8;;
74483;SDS011;62942;52.462;10.846;2023-05-01T03:12:40;6.4;;;11.4;;
74483;SDS011;62942;52.462;10.846;2023-05-01T03:13:50;6.8;;;11.5;;
74483;SDS011;62942;52.462;10.846;2023-05-01T03:14:50;6.1;;;10.6;;
74483;SDS011;62942;52.462;10.846;2023-05-01T03:16:00;6.7;;;11.7;;
74483;SDS011;62942;52.462;10.846;2023-05-01T03:17:00;6.5;;;12.3;;
74483;SDS011;62942;52.462;10.846;2023-05-01T03:18:00;6.7;;;12.5;;
74483;SDS011;62942;52.462;10.846;2023-05-01T03:19:10;7;;;14.4;;
74483;SDS011;62942;52.462;10.846;2023-05-01T03:20:20;6.6;;;11.8;;
74483;SDS011;62942;52.462;10.846;2023-05-01T03:21:30;7;;;13;;
74483;SDS011;62942;52.462;10.846;2023-05-01T03:22:40;6.9;;;11.7;;
74483;SDS011;62942;52.462;10.846;2023-05-01T03:23:40;6.9;;;13.2;;
74483;SDS011;62942;52.462;10.846;2023-05-01T03:24:50;7.2;;;13.2;;
74483;SDS011;62942;52.462;10.846;2023-05-01T03:25:50;7.3;;;14.7;;
74483;SDS011;62942;52.462;10.846;2023-05-01T03:27:00;7.4;;;13.5;;
74483;SDS011;62942;52.462;10.846;2023-05-01T03:28:10;7.4;;;13.2;;
74483;SDS011;62942;52.462;10.846;2023-05-01T03:29:20;7.6;;;14.3;;
74483;SDS011;62942;52.462;10.846;2023-05-01T03:30:32;7.5;;;13.3;;
74483;SDS011;62942;52.462;10.846;2023-05-01T03:31:40;6.9;;;12.6;;
74483;SDS011;62942;52.462;10.846;2023-05-01T03:32:40;6.9;;;11.7;;
74483;SDS011;62942;52.462;10.846;2023-05-01T03:33:50;7.2;;;14;;
74483;SDS011;62942;52.462;10.846;2023-05-01T03:35:00;7.1;;;11.9;;
74483;SDS011;62942;52.462;10.846;2023-05-01T03:36:00;7.6;;;12.6;;
74483;SDS011;62942;52.462;10.846;2023-05-01T03:37:00;7.3;;;13.3;;
74483;SDS011;62942;52.462;10.846;2023-05-01T03:38:10;7.2;;;13.7;;
74483;SDS011;62942;52.462;10.846;2023-05-01T03:39:20;7.1;;;13.5;;
74483;SDS011;62942;52.462;10.846;2023-05-01T03:40:30;7.4;;;12.6;;
74483;SDS011;62942;52.462;10.846;2023-05-01T03:41:40;7.2;;;13.7;;
74483;SDS011;62942;52.462;10.846;2023-05-01T03:42:40;7.5;;;13.1;;
74483;SDS011;62942;52.462;10.846;2023-05-01T03:43:50;7.4;;;14.6;;
74483;SDS011;62942;52.462;10.846;2023-05-01T03:44:50;7.4;;;12.1;;
74483;SDS011;62942;52.462;10.846;2023-05-01T03:46:00;7.4;;;13.8;;
74483;SDS011;62942;52.462;10.846;2023-05-01T03:47:00;7.6;;;14;;
74483;SDS011;62942;52.462;10.846;2023-05-01T03:48:10;6.9;;;12.1;;
74483;SDS011;62942;52.462;10.846;2023-05-01T03:49:11;7.3;;;12.9;;
74483;SDS011;62942;52.462;10.846;2023-05-01T03:50:20;7;;;12.7;;
74483;SDS011;62942;52.462;10.846;2023-05-01T03:51:20;7.3;;;12.8;;
74483;SDS011;62942;52.462;10.846;2023-05-01T03:52:30;7.2;;;13.2;;
74483;SDS011;62942;52.462;10.846;2023-05-01T03:53:30;7.7;;;14.3;;
74483;SDS011;62942;52.462;10.846;2023-05-01T03:54:40;7.5;;;12.1;;
74483;SDS011;62942;52.462;10.846;2023-05-01T03:55:50;7.8;;;13.6;;
74483;SDS011;62942;52.462;10.846;2023-05-01T03:56:50;7.4;;;11.6;;
74483;SDS011;62942;52.462;10.846;2023-05-01T03:57:50;7.8;;;13.9;;
74483;SDS011;62942;52.462;10.846;2023-05-01T03:58:50;7.5;;;14.4;;
74483;SDS011;62942;52.462;10.846;2023-05-01T03:59:50;7.3;;;12.4;;
74483;SDS011;62942;52.462;10.846;2023-05-01T04:01:00;7.9;;;13.9;;
74483;SDS011;62942;52.462;10.846;2023-05-01T04:02:00;7.6;;;14.3;;
74483;SDS011;62942;52.462;10.846;2023-05-01T04:03:00;7.6;;;12.9;;
74483;SDS011;62942;52.462;10.846;2023-05-01T04:04:10;7.7;;;14.1;;
74483;SDS011;62942;52.462;10.846;2023-05-01T04:05:10;8;;;13.6;;
74483;SDS011;62942;52.462;10.846;2023-05-01T04:06:20;7.5;;;13.2;;
74483;SDS011;62942;52.462;10.846;2023-05-01T04:07:20;8;;;14;;
74483;SDS011;62942;52.462;10.846;2023-05-01T04:08:30;7.8;;;13.4;;
74483;SDS011;62942;52.462;10.846;2023-05-01T04:09:40;7.4;;;14.1;;
74483;SDS011;62942;52.462;10.846;2023-05-01T04:10:50;7.4;;;14.4;;
74483;SDS011;62942;52.462;10.846;2023-05-01T04:11:50;7.8;;;14.4;;
74483;SDS011;62942;52.462;10.846;2023-05-01T04:13:00;7.7;;;13.3;;
74483;SDS011;62942;52.462;10.846;2023-05-01T04:14:00;7.7;;;13.3;;
74483;SDS011;62942;52.462;10.846;2023-05-01T04:15:10;7.3;;;14.2;;
74483;SDS011;62942;52.462;10.846;2023-05-01T04:16:10;7.7;;;13.3;;
74483;SDS011;62942;52.462;10.846;2023-05-01T04:17:20;7.4;;;12.1;;
74483;SDS011;62942;52.462;10.846;2023-05-01T04:18:20;7.8;;;13.6;;
74483;SDS011;62942;52.462;10.846;2023-05-01T04:19:20;7.5;;;14.6;;
74483;SDS011;62942;52.462;10.846;2023-05-01T04:20:30;7.9;;;14.8;;
74483;SDS011;62942;52.462;10.846;2023-05-01T04:21:40;7.3;;;12.4;;
74483;SDS011;62942;52.462;10.846;2023-05-01T04:22:50;7.5;;;14.2;;
74483;SDS011;62942;52.462;10.846;2023-05-01T04:23:50;7.5;;;13.7;;
74483;SDS011;62942;52.462;10.846;2023-05-01T04:25:00;7.1;;;13.2;;
74483;SDS011;62942;52.462;10.846;2023-05-01T04:26:00;7.1;;;12.8;;
74483;SDS011;62942;52.462;10.846;2023-05-01T04:27:00;6.9;;;13.2;;
74483;SDS011;62942;52.462;10.846;2023-05-01T04:28:10;7.1;;;11.9;;
74483;SDS011;62942;52.462;10.846;2023-05-01T04:29:10;7.3;;;14.3;;
74483;SDS011;62942;52.462;10.846;2023-05-01T04:30:10;7;;;12.4;;
74483;SDS011;62942;52.462;10.846;2023-05-01T04:31:20;7.2;;;14.5;;
74483;SDS011;62942;52.462;10.846;2023-05-01T04:32:20;7;;;13;;
74483;SDS011;62942;52.462;10.846;2023-05-01T04:33:20;7;;;12.2;;
74483;SDS011;62942;52.462;10.846;2023-05-01T04:34:30;6.7;;;10.8;;
74483;SDS011;62942;52.462;10.846;2023-05-01T04:35:30;7.1;;;13.7;;
74483;SDS011;62942;52.462;10.846;2023-05-01T04:36:40;7.1;;;13;;
74483;SDS011;62942;52.462;10.846;2023-05-01T04:37:40;7.1;;;11.8;;
74483;SDS011;62942;52.462;10.846;2023-05-01T04:38:50;6.8;;;13.1;;
74483;SDS011;62942;52.462;10.846;2023-05-01T04:40:00;6.8;;;11.6;;
74483;SDS011;62942;52.462;10.846;2023-05-01T04:41:10;6.7;;;11.9;;
74483;SDS011;62942;52.462;10.846;2023-05-01T04:42:20;6.6;;;12.7;;
74483;SDS011;62942;52.462;10.846;2023-05-01T04:43:20;6.9;;;11.9;;
74483;SDS011;62942;52.462;10.846;2023-05-01T04:44:30;6.7;;;11.6;;
74483;SDS011;62942;52.462;10.846;2023-05-01T04:45:30;6.7;;;12.1;;
74483;SDS011;62942;52.462;10.846;2023-05-01T04:46:30;6.6;;;11.4;;
74483;SDS011;62942;52.462;10.846;2023-05-01T04:47:30;6.5;;;11.9;;
74483;SDS011;62942;52.462;10.846;2023-05-01T04:48:40;6.7;;;12.9;;
74483;SDS011;62942;52.462;10.846;2023-05-01T04:49:40;6.7;;;10.7;;
74483;SDS011;62942;52.462;10.846;2023-05-01T04:50:40;6.6;;;11.1;;
74483;SDS011;62942;52.462;10.846;2023-05-01T04:51:40;6.8;;;11.6;;
74483;SDS011;62942;52.462;10.846;2023-05-01T04:52:50;6.3;;;10.8;;
74483;SDS011;62942;52.462;10.846;2023-05-01T04:54:00;6.4;;;10.4;;
74483;SDS011;62942;52.462;10.846;2023-05-01T04:55:00;6.3;;;12.9;;
74483;SDS011;62942;52.462;10.846;2023-05-01T04:56:00;6.4;;;10.4;;
74483;SDS011;62942;52.462;10.846;2023-05-01T04:57:10;6.5;;;10;;
74483;SDS011;62942;52.462;10.846;2023-05-01T04:58:20;6.5;;;12.2;;
74483;SDS011;62942;52.462;10.846;2023-05-01T04:59:20;6.4;;;12.1;;
74483;SDS011;62942;52.462;10.846;2023-05-01T05:00:30;6.1;;;10.8;;
74483;SDS011;62942;52.462;10.846;2023-05-01T05:01:30;6.2;;;10.2;;
74483;SDS011;62942;52.462;10.846;2023-05-01T05:02:40;6.4;;;12.3;;
74483;SDS011;62942;52.462;10.846;2023-05-01T05:03:40;6.3;;;12.4;;
74483;SDS011;62942;52.462;10.846;2023-05-01T05:04:50;6.2;;;11;;
74483;SDS011;62942;52.462;10.846;2023-05-01T05:06:00;6.6;;;12.2;;
74483;SDS011;62942;52.462;10.846;2023-05-01T05:07:00;6.3;;;10.6;;
74483;SDS011;62942;52.462;10.846;2023-05-01T05:08:10;6.3;;;11.3;;
74483;SDS011;62942;52.462;10.846;2023-05-01T05:09:20;6.2;;;10.7;;
74483;SDS011;62942;52.462;10.846;2023-05-01T05:10:20;6.2;;;10.1;;
74483;SDS011;62942;52.462;10.846;2023-05-01T05:11:20;6.1;;;11.3;;
74483;SDS011;62942;52.462;10.846;2023-05-01T05:12:30;6.3;;;13.4;;
74483;SDS011;62942;52.462;10.846;2023-05-01T05:13:30;6.3;;;10.5;;
74483;SDS011;62942;52.462;10.846;2023-05-01T05:14:40;6.5;;;10.6;;
74483;SDS011;62942;52.462;10.846;2023-05-01T05:15:50;6.2;;;12.4;;
74483;SDS011;62942;52.462;10.846;2023-05-01T05:16:50;6.2;;;10.7;;
74483;SDS011;62942;52.462;10.846;2023-05-01T05:17:50;6.1;;;11.7;;
74483;SDS011;62942;52.462;10.846;2023-05-01T05:19:00;6.2;;;12.2;;
74483;SDS011;62942;52.462;10.846;2023-05-01T05:20:10;6.2;;;10.6;;
74483;SDS011;62942;52.462;10.846;2023-05-01T05:21:20;6;;;10.2;;
74483;SDS011;62942;52.462;10.846;2023-05-01T05:22:30;6;;;10.8;;
74483;SDS011;62942;52.462;10.846;2023-05-01T05:23:30;6.2;;;10.7;;
74483;SDS011;62942;52.462;10.846;2023-05-01T05:24:40;5.8;;;9.3;;
74483;SDS011;62942;52.462;10.846;2023-05-01T05:25:50;6.3;;;11.2;;
74483;SDS011;62942;52.462;10.846;2023-05-01T05:27:00;6.2;;;11;;
74483;SDS011;62942;52.462;10.846;2023-05-01T05:28:00;6.1;;;10.9;;
74483;SDS011;62942;52.462;10.846;2023-05-01T05:29:10;6.1;;;12.3;;
74483;SDS011;62942;52.462;10.846;2023-05-01T05:30:10;6;;;11.4;;
74483;SDS011;62942;52.462;10.846;2023-05-01T05:31:20;6;;;11.4;;
74483;SDS011;62942;52.462;10.846;2023-05-01T05:32:20;6.1;;;10.3;;
74483;SDS011;62942;52.462;10.846;2023-05-01T05:33:30;6.1;;;10.8;;
74483;SDS011;62942;52.462;10.846;2023-05-01T05:34:30;6.2;;;11.3;;
74483;SDS011;62942;52.462;10.846;2023-05-01T05:35:40;5.9;;;10.3;;
74483;SDS011;62942;52.462;10.846;2023-05-01T05:36:50;6.2;;;11.7;;
74483;SDS011;62942;52.462;10.846;2023-05-01T05:38:00;6.2;;;10.3;;
74483;SDS011;62942;52.462;10.846;2023-05-01T05:39:10;6.3;;;10.5;;
74483;SDS011;62942;52.462;10.846;2023-05-01T05:40:10;6.1;;;10.2;;
74483;SDS011;62942;52.462;10.846;2023-05-01T05:41:20;6.1;;;11;;
74483;SDS011;62942;52.462;10.846;2023-05-01T05:42:30;6.3;;;13.5;;
74483;SDS011;62942;52.462;10.846;2023-05-01T05:43:40;6.1;;;10.5;;
74483;SDS011;62942;52.462;10.846;2023-05-01T05:44:50;6.2;;;10.3;;
74483;SDS011;62942;52.462;10.846;2023-05-01T05:46:00;6;;;12.1;;
74483;SDS011;62942;52.462;10.846;2023-05-01T05:47:00;6.1;;;12;;
74483;SDS011;62942;52.462;10.846;2023-05-01T05:48:10;6.2;;;11.4;;
74483;SDS011;62942;52.462;10.846;2023-05-01T05:49:20;5.7;;;9.9;;
74483;SDS011;62942;52.462;10.846;2023-05-01T05:50:30;5.6;;;11.7;;
74483;SDS011;62942;52.462;10.846;2023-05-01T05:51:40;5.9;;;9.8;;
74483;SDS011;62942;52.462;10.846;2023-05-01T05:52:50;5.9;;;10.5;;
74483;SDS011;62942;52.462;10.846;2023-05-01T05:54:00;6.2;;;11.2;;
74483;SDS011;62942;52.462;10.846;2023-05-01T05:55:10;5.7;;;8.8;;
74483;SDS011;62942;52.462;10.846;2023-05-01T05:56:20;5.6;;;10.4;;
74483;SDS011;62942;52.462;10.846;2023-05-01T05:57:30;5.8;;;10.1;;
74483;SDS011;62942;52.462;10.846;2023-05-01T05:58:30;5.8;;;10.6;;
74483;SDS011;62942;52.462;10.846;2023-05-01T05:59:40;5.7;;;9.6;;
74483;SDS011;62942;52.462;10.846;2023-05-01T06:00:40;5.5;;;9.5;;
74483;SDS011;62942;52.462;10.846;2023-05-01T06:01:50;5.5;;;10.3;;
74483;SDS011;62942;52.462;10.846;2023-05-01T06:02:50;5.5;;;8.5;;
74483;SDS011;62942;52.462;10.846;2023-05-01T06:04:00;5.6;;;10.8;;
74483;SDS011;62942;52.462;10.846;2023-05-01T06:05:10;5.5;;;8.2;;
74483;SDS011;62942;52.462;10.846;2023-05-01T06:06:20;5.4;;;10.2;;
74483;SDS011;62942;52.462;10.846;2023-05-01T06:07:20;5.2;;;8.7;;
74483;SDS011;62942;52.462;10.846;2023-05-01T06:08:20;5.3;;;9.3;;
74483;SDS011;62942;52.462;10.846;2023-05-01T06:09:30;5.2;;;8.8;;
74483;SDS011;62942;52.462;10.846;2023-05-01T06:10:30;5.7;;;9.8;;
74483;SDS011;62942;52.462;10.846;2023-05-01T06:11:30;5.4;;;9.5;;
74483;SDS011;62942;52.462;10.846;2023-05-01T06:12:40;5.6;;;11.8;;
74483;SDS011;62942;52.462;10.846;2023-05-01T06:13:40;5.6;;;10.1;;
74483;SDS011;62942;52.462;10.846;2023-05-01T06:14:50;5.5;;;8.5;;
74483;SDS011;62942;52.462;10.846;2023-05-01T06:16:00;5.3;;;9.3;;
74483;SDS011;62942;52.462;10.846;2023-05-01T06:17:00;5.5;;;10.2;;
74483;SDS011;62942;52.462;10.846;2023-05-01T06:18:10;5.6;;;10.4;;
74483;SDS011;62942;52.462;10.846;2023-05-01T06:19:20;5.6;;;9.5;;
74483;SDS011;62942;52.462;10.846;2023-05-01T06:20:30;5.7;;;8.8;;
74483;SDS011;62942;52.462;10.846;2023-05-01T06:21:30;5.6;;;10.1;;
74483;SDS011;62942;52.462;10.846;2023-05-01T06:22:40;5.7;;;10.9;;
74483;SDS011;62942;52.462;10.846;2023-05-01T06:23:50;5.5;;;9.2;;
74483;SDS011;62942;52.462;10.846;2023-05-01T06:24:50;5.5;;;9;;
74483;SDS011;62942;52.462;10.846;2023-05-01T06:26:00;5.3;;;9.9;;
74483;SDS011;62942;52.462;10.846;2023-05-01T06:27:00;5.2;;;8.5;;
74483;SDS011;62942;52.462;10.846;2023-05-01T06:28:10;5.5;;;8.8;;
74483;SDS011;62942;52.462;10.846;2023-05-01T06:29:10;5.3;;;8.5;;
74483;SDS011;62942;52.462;10.846;2023-05-01T06:30:20;5.4;;;10.4;;
74483;SDS011;62942;52.462;10.846;2023-05-01T06:31:20;5.3;;;9.4;;
74483;SDS011;62942;52.462;10.846;2023-05-01T06:32:20;5.4;;;9.5;;
74483;SDS011;62942;52.462;10.846;2023-05-01T06:33:30;5.3;;;8.9;;
74483;SDS011;62942;52.462;10.846;2023-05-01T06:34:30;5.2;;;8.2;;
74483;SDS011;62942;52.462;10.846;2023-05-01T06:35:40;5.4;;;9.4;;
74483;SDS011;62942;52.462;10.846;2023-05-01T06:36:50;5.5;;;10.8;;